Time;durP1;ratioP1;P1;durP2;ratioP2;P2;SDS_P1;SDS_P2;PMS_P1;PMS_P2;Temp;Humidity;BMP_temperature;BMP_pressure;BME280_temperature;BME280_humidity;BME280_pressure;Samples;Min_cycle;Max_cycle;Signal;HPM_P1;HPM_P2
2021/07/13 00:00:39;;;;;;;21.17;16.85;;;;;;;;;;5053585;28;20021;-61
2021/07/13 00:03:05;;;;;;;20.15;16.63;;;;;;;;;;5054487;28;20048;-61
2021/07/13 00:05:32;;;;;;;21.27;16.52;;;;;;;;;;5053343;28;20113;-59
2021/07/13 00:07:58;;;;;;;21.95;17.00;;;;;;;;;;5054733;28;20025;-61
2021/07/13 00:10:28;;;;;;;20.55;16.00;;;;;;;;;;5054886;28;20040;-60
2021/07/13 00:12:55;;;;;;;22.10;15.85;;;;;;;;;;5054051;28;20025;-59
2021/07/13 00:15:22;;;;;;;20.95;16.92;;;;;;;;;;5054177;28;20464;-61
2021/07/13 00:17:49;;;;;;;20.40;16.30;;;;;;;;;;5054412;28;20025;-61
2021/07/13 00:20:15;;;;;;;24.35;16.38;;;;;;;;;;5053115;28;20547;-61
2021/07/13 00:22:41;;;;;;;20.70;15.57;;;;;;;;;;5054279;28;20033;-60
2021/07/13 00:25:08;;;;;;;21.80;16.38;;;;;;;;;;5054043;28;20025;-62
2021/07/13 00:27:34;;;;;;;22.05;16.67;;;;;;;;;;5054256;28;20477;-61
2021/07/13 00:30:00;;;;;;;21.40;16.33;;;;;;;;;;5053282;28;20090;-61
2021/07/13 00:32:26;;;;;;;24.98;16.35;;;;;;;;;;5054326;28;20025;-60
2021/07/13 00:34:52;;;;;;;20.73;15.15;;;;;;;;;;5052702;28;20033;-61
2021/07/13 00:37:18;;;;;;;19.48;15.43;;;;;;;;;;5053850;28;20036;-61
2021/07/13 00:39:44;;;;;;;20.35;16.35;;;;;;;;;;5054008;28;20151;-61
2021/07/13 00:42:19;;;;;;;21.33;15.52;;;;;;;;;;5052677;28;20036;-60
2021/07/13 00:44:46;;;;;;;18.95;15.43;;;;;;;;;;5052573;28;20032;-61
2021/07/13 00:47:12;;;;;;;19.45;16.08;;;;;;;;;;5053702;28;20025;-61
2021/07/13 00:49:39;;;;;;;21.10;16.10;;;;;;;;;;5052354;28;20021;-60
2021/07/13 00:52:06;;;;;;;19.52;15.73;;;;;;;;;;5053836;28;20032;-62
2021/07/13 00:54:32;;;;;;;24.60;16.02;;;;;;;;;;5053416;28;20481;-61
2021/07/13 00:56:58;;;;;;;19.90;16.25;;;;;;;;;;5051443;28;20033;-59
2021/07/13 00:59:24;;;;;;;20.10;15.57;;;;;;;;;;5052889;28;20036;-61
2021/07/13 01:01:50;;;;;;;20.98;14.80;;;;;;;;;;5053440;28;20025;-59
2021/07/13 01:04:18;;;;;;;19.42;14.65;;;;;;;;;;5053426;28;20086;-63
2021/07/13 01:06:49;;;;;;;19.45;14.65;;;;;;;;;;5053170;28;20091;-62
2021/07/13 01:09:21;;;;;;;18.77;14.43;;;;;;;;;;5053331;28;20107;-64
2021/07/13 01:11:49;;;;;;;19.48;14.73;;;;;;;;;;5053120;28;20110;-63
2021/07/13 01:14:15;;;;;;;;;;;;;;;;;;5052289;28;20029;-62
2021/07/13 01:16:50;;;;;;;21.17;14.30;;;;;;;;;;5053001;28;20046;-63
2021/07/13 01:19:22;;;;;;;21.88;14.15;;;;;;;;;;5051808;28;20025;-61
2021/07/13 01:21:54;;;;;;;20.25;15.35;;;;;;;;;;5052154;28;20028;-62
2021/07/13 01:24:24;;;;;;;20.08;15.30;;;;;;;;;;5052026;28;20095;-62
2021/07/13 01:26:58;;;;;;;18.38;14.75;;;;;;;;;;5052932;28;20029;-60
2021/07/13 01:29:25;;;;;;;19.23;15.35;;;;;;;;;;5051833;28;20025;-62
2021/07/13 01:31:51;;;;;;;20.70;15.52;;;;;;;;;;5053153;28;20028;-62
2021/07/13 01:34:20;;;;;;;20.27;15.30;;;;;;;;;;5052910;28;20075;-62
2021/07/13 01:36:51;;;;;;;20.02;15.10;;;;;;;;;;5052855;28;20017;-62
2021/07/13 01:39:18;;;;;;;19.27;14.93;;;;;;;;;;5053040;28;20017;-60
2021/07/13 01:41:47;;;;;;;19.00;15.30;;;;;;;;;;5052877;28;20025;-62
2021/07/13 01:44:14;;;;;;;19.50;15.43;;;;;;;;;;5052491;28;20021;-62
2021/07/13 01:46:40;;;;;;;19.17;15.20;;;;;;;;;;5051435;28;20041;-62
2021/07/13 01:49:07;;;;;;;19.42;16.00;;;;;;;;;;5052823;28;20032;-62
2021/07/13 01:51:33;;;;;;;20.05;15.38;;;;;;;;;;5051613;28;20025;-63
2021/07/13 01:54:05;;;;;;;21.00;15.30;;;;;;;;;;5067359;22;20049;-59
2021/07/13 01:56:31;;;;;;;19.58;15.45;;;;;;;;;;5050636;28;20032;-58
2021/07/13 01:58:59;;;;;;;19.52;15.27;;;;;;;;;;5052626;28;20096;-60
2021/07/13 02:01:25;;;;;;;20.88;16.27;;;;;;;;;;5034690;28;20039;-62
2021/07/13 02:03:52;;;;;;;20.60;16.45;;;;;;;;;;5051186;28;20388;-61
2021/07/13 02:06:21;;;;;;;21.73;16.58;;;;;;;;;;5050651;28;20116;-59
2021/07/13 02:08:48;;;;;;;19.33;15.57;;;;;;;;;;5051119;28;20028;-64
2021/07/13 02:11:15;;;;;;;20.20;16.00;;;;;;;;;;5051234;28;20025;-60
2021/07/13 02:13:41;;;;;;;21.77;16.45;;;;;;;;;;5051955;28;20029;-60
2021/07/13 02:16:09;;;;;;;21.45;15.75;;;;;;;;;;5051057;28;20024;-60
2021/07/13 02:18:35;;;;;;;;;;;;;;;;;;5052766;28;20389;-61
2021/07/13 02:21:01;;;;;;;22.20;16.90;;;;;;;;;;5052488;28;19912;-61
2021/07/13 02:23:27;;;;;;;23.15;17.70;;;;;;;;;;5051115;28;20541;-63
2021/07/13 02:25:55;;;;;;;21.50;16.70;;;;;;;;;;5052155;28;20071;-60
2021/07/13 02:28:23;;;;;;;20.77;16.10;;;;;;;;;;5052301;28;20111;-62
2021/07/13 02:30:52;;;;;;;21.65;15.85;;;;;;;;;;5052506;28;20056;-60
2021/07/13 02:33:18;;;;;;;;;;;;;;;;;;5051731;28;20033;-63
2021/07/13 02:35:50;;;;;;;23.77;16.40;;;;;;;;;;5051956;28;19904;-63
2021/07/13 02:38:16;;;;;;;20.75;16.05;;;;;;;;;;5050832;28;20061;-60
2021/07/13 02:40:43;;;;;;;21.83;17.05;;;;;;;;;;5052165;28;20034;-62
2021/07/13 02:43:09;;;;;;;20.70;15.75;;;;;;;;;;5052243;28;20113;-61
2021/07/13 02:45:36;;;;;;;22.02;17.10;;;;;;;;;;5052152;28;20051;-62
2021/07/13 02:48:02;;;;;;;20.60;17.23;;;;;;;;;;5052198;28;20104;-62
2021/07/13 02:50:30;;;;;;;20.55;16.13;;;;;;;;;;5052313;28;20516;-60
2021/07/13 02:52:57;;;;;;;20.70;16.07;;;;;;;;;;5051927;28;20036;-60
2021/07/13 02:55:24;;;;;;;20.63;15.57;;;;;;;;;;5051615;28;20291;-60
2021/07/13 02:57:51;;;;;;;20.92;15.95;;;;;;;;;;5050848;28;20120;-60
2021/07/13 03:00:18;;;;;;;21.13;15.98;;;;;;;;;;5051863;28;20076;-62
2021/07/13 03:02:49;;;;;;;21.85;16.63;;;;;;;;;;5051919;28;20029;-60
2021/07/13 03:05:15;;;;;;;20.65;16.75;;;;;;;;;;5051886;28;20056;-59
2021/07/13 03:07:42;;;;;;;20.33;16.90;;;;;;;;;;5052060;28;20057;-60
2021/07/13 03:10:08;;;;;;;21.15;16.65;;;;;;;;;;5050856;28;20063;-62
2021/07/13 03:12:34;;;;;;;25.77;18.00;;;;;;;;;;5051479;28;20112;-61
2021/07/13 03:15:02;;;;;;;20.88;16.45;;;;;;;;;;5050480;28;20027;-61
2021/07/13 03:17:28;;;;;;;22.02;17.83;;;;;;;;;;5050235;28;20021;-61
2021/07/13 03:19:54;;;;;;;20.55;16.55;;;;;;;;;;5050717;28;20024;-62
2021/07/13 03:22:31;;;;;;;23.38;18.58;;;;;;;;;;5055650;28;20510;-60
2021/07/13 03:24:59;;;;;;;23.02;18.33;;;;;;;;;;5055687;28;20071;-60
2021/07/13 03:27:25;;;;;;;21.75;17.65;;;;;;;;;;5055267;28;20025;-61
2021/07/13 03:29:52;;;;;;;23.88;17.50;;;;;;;;;;5054469;28;20033;-61
2021/07/13 03:32:18;;;;;;;20.90;17.13;;;;;;;;;;5055601;28;20029;-61
2021/07/13 03:34:46;;;;;;;22.25;17.77;;;;;;;;;;5055571;28;20052;-62
2021/07/13 03:37:12;;;;;;;21.35;17.13;;;;;;;;;;5054058;28;20032;-60
2021/07/13 03:39:38;;;;;;;21.35;16.70;;;;;;;;;;5054154;28;20028;-61
2021/07/13 03:42:04;;;;;;;21.50;17.67;;;;;;;;;;5053924;28;20538;-60
2021/07/13 03:44:31;;;;;;;23.98;18.73;;;;;;;;;;5055512;28;20492;-63
2021/07/13 03:46:57;;;;;;;22.55;17.42;;;;;;;;;;5054057;28;20032;-63
2021/07/13 03:49:24;;;;;;;23.63;17.40;;;;;;;;;;5054755;28;20028;-63
2021/07/13 03:51:50;;;;;;;21.88;17.63;;;;;;;;;;5055027;28;20024;-62
2021/07/13 03:54:17;;;;;;;23.23;17.38;;;;;;;;;;5054496;28;20039;-62
2021/07/13 03:56:43;;;;;;;27.13;18.20;;;;;;;;;;5054531;28;20036;-62
2021/07/13 03:59:09;;;;;;;21.85;16.50;;;;;;;;;;5054758;28;20021;-61
2021/07/13 04:01:36;;;;;;;22.63;17.38;;;;;;;;;;5054574;28;20022;-63
2021/07/13 04:04:02;;;;;;;21.80;17.92;;;;;;;;;;5054848;28;20434;-63
2021/07/13 04:06:28;;;;;;;22.13;18.30;;;;;;;;;;5053457;28;20067;-60
2021/07/13 04:08:55;;;;;;;22.35;18.00;;;;;;;;;;5053413;28;20033;-62
2021/07/13 04:11:21;;;;;;;24.17;19.20;;;;;;;;;;5053356;28;20054;-62
2021/07/13 04:13:47;;;;;;;24.45;19.15;;;;;;;;;;5054640;28;20439;-60
2021/07/13 04:16:13;;;;;;;22.25;18.10;;;;;;;;;;5053243;28;20021;-60
2021/07/13 04:18:39;;;;;;;22.52;18.83;;;;;;;;;;5054695;28;20071;-60
2021/07/13 04:21:05;;;;;;;24.45;18.02;;;;;;;;;;5053499;28;20473;-59
2021/07/13 04:23:31;;;;;;;24.65;20.13;;;;;;;;;;5053544;28;20545;-61
2021/07/13 04:25:57;;;;;;;25.27;19.50;;;;;;;;;;5053107;28;20033;-61
2021/07/13 04:28:25;;;;;;;26.40;18.38;;;;;;;;;;5054577;28;20492;-62
2021/07/13 04:30:51;;;;;;;23.52;19.63;;;;;;;;;;5054916;28;20028;-62
2021/07/13 04:33:17;;;;;;;22.65;18.75;;;;;;;;;;5054374;28;20037;-62
2021/07/13 04:35:43;;;;;;;24.38;20.48;;;;;;;;;;5053197;28;20022;-61
2021/07/13 04:38:09;;;;;;;24.83;19.65;;;;;;;;;;5052974;28;20036;-62
2021/07/13 04:40:35;;;;;;;24.35;19.73;;;;;;;;;;5053913;28;20049;-61
2021/07/13 04:43:01;;;;;;;24.50;20.50;;;;;;;;;;5052726;28;20056;-61
2021/07/13 04:45:27;;;;;;;24.58;20.55;;;;;;;;;;5053647;28;20099;-62
2021/07/13 04:47:53;;;;;;;26.08;21.10;;;;;;;;;;5053944;28;20057;-62
2021/07/13 04:50:19;;;;;;;25.95;20.25;;;;;;;;;;5050879;28;20071;-63
2021/07/13 04:52:45;;;;;;;25.60;21.20;;;;;;;;;;5048992;28;20071;-64
2021/07/13 04:55:13;;;;;;;26.52;21.88;;;;;;;;;;5042646;28;20045;-64
2021/07/13 04:57:39;;;;;;;26.40;21.02;;;;;;;;;;5054060;28;20040;-63
2021/07/13 05:00:06;;;;;;;28.65;21.48;;;;;;;;;;5053943;28;20024;-64
2021/07/13 05:02:32;;;;;;;27.10;21.52;;;;;;;;;;5052750;28;20021;-63
2021/07/13 05:04:58;;;;;;;30.02;22.40;;;;;;;;;;5054152;28;20032;-63
2021/07/13 05:07:24;;;;;;;28.65;22.73;;;;;;;;;;5049421;28;20021;-64
2021/07/13 05:09:50;;;;;;;30.17;22.50;;;;;;;;;;5033471;28;20110;-63
2021/07/13 05:12:16;;;;;;;31.40;23.05;;;;;;;;;;5033341;28;20025;-62
2021/07/13 05:14:42;;;;;;;30.02;23.33;;;;;;;;;;5033251;28;20025;-61
2021/07/13 05:17:10;;;;;;;31.60;23.42;;;;;;;;;;5032452;28;20527;-63
2021/07/13 05:19:38;;;;;;;28.38;24.08;;;;;;;;;;5033100;28;20014;-63
2021/07/13 05:22:07;;;;;;;29.52;23.52;;;;;;;;;;5032147;28;20026;-62
2021/07/13 05:24:33;;;;;;;27.92;22.75;;;;;;;;;;5039585;28;20024;-63
2021/07/13 05:26:59;;;;;;;29.15;23.80;;;;;;;;;;5051465;28;20502;-63
2021/07/13 05:29:25;;;;;;;31.15;23.85;;;;;;;;;;5051467;28;20032;-62
2021/07/13 05:31:51;;;;;;;29.30;23.30;;;;;;;;;;5051699;28;20017;-63
2021/07/13 05:34:17;;;;;;;27.20;23.48;;;;;;;;;;5051485;28;20484;-63
2021/07/13 05:36:43;;;;;;;28.67;23.92;;;;;;;;;;5052769;28;20024;-65
2021/07/13 05:39:10;;;;;;;29.00;22.80;;;;;;;;;;5051797;28;20032;-65
2021/07/13 05:41:36;;;;;;;30.25;23.85;;;;;;;;;;5053384;28;20028;-64
2021/07/13 05:44:02;;;;;;;29.98;23.63;;;;;;;;;;5050974;28;20036;-66
2021/07/13 05:46:28;;;;;;;30.80;24.05;;;;;;;;;;5051198;28;20029;-65
2021/07/13 05:48:54;;;;;;;28.15;23.27;;;;;;;;;;5051059;28;20029;-67
2021/07/13 05:51:20;;;;;;;28.40;22.23;;;;;;;;;;5052419;28;20025;-65
2021/07/13 05:53:46;;;;;;;25.95;20.83;;;;;;;;;;5052138;28;20370;-65
2021/07/13 05:56:12;;;;;;;28.95;21.90;;;;;;;;;;5052694;28;20107;-65
2021/07/13 05:58:38;;;;;;;27.50;21.38;;;;;;;;;;5051415;28;20477;-65
2021/07/13 06:01:05;;;;;;;31.23;23.30;;;;;;;;;;5049048;28;20025;-65
2021/07/13 06:03:31;;;;;;;30.85;23.20;;;;;;;;;;5033904;28;20028;-65
2021/07/13 06:05:57;;;;;;;29.05;23.60;;;;;;;;;;5031291;28;20029;-65
2021/07/13 06:08:23;;;;;;;29.23;24.17;;;;;;;;;;5031311;28;20029;-65
2021/07/13 06:10:49;;;;;;;30.58;24.77;;;;;;;;;;5032511;28;20041;-65
2021/07/13 06:13:15;;;;;;;27.88;24.83;;;;;;;;;;5030710;28;20496;-65
2021/07/13 06:15:41;;;;;;;29.50;25.33;;;;;;;;;;5032097;28;20040;-66
2021/07/13 06:18:07;;;;;;;30.73;26.17;;;;;;;;;;5031276;28;20033;-65
2021/07/13 06:20:35;;;;;;;32.25;27.38;;;;;;;;;;5032601;28;20501;-65
2021/07/13 06:23:01;;;;;;;32.88;26.73;;;;;;;;;;5032350;28;20022;-65
2021/07/13 06:25:27;;;;;;;34.10;28.13;;;;;;;;;;5037302;28;20025;-65
2021/07/13 06:27:53;;;;;;;34.53;30.35;;;;;;;;;;5050644;28;20040;-65
2021/07/13 06:30:19;;;;;;;32.65;29.15;;;;;;;;;;5051931;28;20132;-65
2021/07/13 06:32:45;;;;;;;34.58;30.65;;;;;;;;;;5052499;28;20025;-64
2021/07/13 06:35:11;;;;;;;34.30;29.17;;;;;;;;;;5050995;28;20017;-64
2021/07/13 06:37:37;;;;;;;34.38;29.88;;;;;;;;;;5052183;28;20017;-65
2021/07/13 06:40:04;;;;;;;35.10;31.30;;;;;;;;;;5052335;28;20125;-64
2021/07/13 06:42:30;;;;;;;34.85;31.15;;;;;;;;;;5051984;28;20079;-58
2021/07/13 06:44:56;;;;;;;38.00;32.63;;;;;;;;;;5052614;28;20123;-59
2021/07/13 06:47:22;;;;;;;37.42;33.28;;;;;;;;;;5050942;28;20048;-54
2021/07/13 06:49:48;;;;;;;44.28;34.45;;;;;;;;;;5052036;28;20036;-60
2021/07/13 06:52:14;;;;;;;39.67;35.38;;;;;;;;;;5051658;28;20033;-60
2021/07/13 06:54:41;;;;;;;42.95;38.03;;;;;;;;;;5050699;28;20032;-52
2021/07/13 06:57:06;;;;;;;42.67;37.05;;;;;;;;;;5049513;28;20036;-60
2021/07/13 06:59:34;;;;;;;46.92;39.40;;;;;;;;;;5043341;28;20022;-58
2021/07/13 07:02:00;;;;;;;41.47;36.53;;;;;;;;;;5039913;28;20399;-60
2021/07/13 07:04:26;;;;;;;40.45;36.20;;;;;;;;;;5043571;28;20057;-60
2021/07/13 07:06:52;;;;;;;41.47;36.47;;;;;;;;;;5055436;28;20081;-60
2021/07/13 07:09:18;;;;;;;42.05;37.40;;;;;;;;;;5055378;28;20068;-59
2021/07/13 07:11:44;;;;;;;44.15;37.78;;;;;;;;;;5054853;28;20025;-58
2021/07/13 07:14:10;;;;;;;47.55;40.08;;;;;;;;;;5055266;28;20033;-59
2021/07/13 07:16:36;;;;;;;43.03;38.10;;;;;;;;;;5053700;28;20484;-58
2021/07/13 07:19:03;;;;;;;42.42;38.08;;;;;;;;;;5053767;28;20021;-59
2021/07/13 07:21:29;;;;;;;41.90;36.63;;;;;;;;;;5053896;28;20025;-61
2021/07/13 07:23:55;;;;;;;41.50;37.10;;;;;;;;;;5053654;28;20534;-61
2021/07/13 07:26:21;;;;;;;41.30;37.00;;;;;;;;;;5054688;28;20033;-59
2021/07/13 07:28:47;;;;;;;40.45;36.20;;;;;;;;;;5055235;28;20071;-59
2021/07/13 07:31:15;;;;;;;39.47;35.22;;;;;;;;;;5054888;28;20377;-61
2021/07/13 07:33:41;;;;;;;38.55;34.65;;;;;;;;;;5054870;28;20021;-60
2021/07/13 07:36:07;;;;;;;41.15;36.10;;;;;;;;;;5048062;28;20025;-59
2021/07/13 07:38:33;;;;;;;39.08;35.08;;;;;;;;;;5043577;28;20021;-58
2021/07/13 07:40:59;;;;;;;40.35;36.00;;;;;;;;;;5043038;28;20032;-57
2021/07/13 07:43:25;;;;;;;42.95;38.55;;;;;;;;;;5043125;28;20025;-60
2021/07/13 07:45:51;;;;;;;44.35;39.47;;;;;;;;;;5042986;28;20477;-59
2021/07/13 07:48:17;;;;;;;42.45;38.05;;;;;;;;;;5044432;28;20024;-58
2021/07/13 07:50:43;;;;;;;42.05;37.60;;;;;;;;;;5045454;28;20100;-57
2021/07/13 07:53:09;;;;;;;44.83;40.08;;;;;;;;;;5042578;28;20022;-61
2021/07/13 07:55:35;;;;;;;49.00;43.45;;;;;;;;;;5044056;22;20508;-58
2021/07/13 07:58:01;;;;;;;46.03;41.28;;;;;;;;;;5016021;28;20424;-58
2021/07/13 08:00:27;;;;;;;44.53;40.00;;;;;;;;;;5033585;28;20436;-56
2021/07/13 08:02:53;;;;;;;46.10;40.55;;;;;;;;;;5033693;28;20116;-54
2021/07/13 08:05:19;;;;;;;45.53;40.90;;;;;;;;;;5039436;28;20052;-57
2021/07/13 08:07:46;;;;;;;47.50;42.22;;;;;;;;;;5029632;28;20080;-56
2021/07/13 08:10:13;;;;;;;46.38;41.40;;;;;;;;;;5034211;28;20034;-58
2021/07/13 08:12:42;;;;;;;45.75;41.20;;;;;;;;;;5016713;28;20489;-56
2021/07/13 08:15:08;;;;;;;44.45;39.85;;;;;;;;;;5033857;28;20033;-55
2021/07/13 08:17:34;;;;;;;44.70;40.03;;;;;;;;;;5033618;28;20029;-56
2021/07/13 08:20:00;;;;;;;46.33;41.33;;;;;;;;;;5016230;28;20022;-59
2021/07/13 08:22:26;;;;;;;45.03;40.45;;;;;;;;;;5016621;28;20385;-59
2021/07/13 08:24:52;;;;;;;43.10;38.50;;;;;;;;;;5034069;28;20048;-58
2021/07/13 08:27:18;;;;;;;43.78;39.33;;;;;;;;;;5016020;28;20036;-60
2021/07/13 08:29:44;;;;;;;44.67;39.88;;;;;;;;;;5033929;28;20088;-63
2021/07/13 08:32:10;;;;;;;47.00;42.05;;;;;;;;;;5016512;28;20068;-61
2021/07/13 08:34:36;;;;;;;49.75;44.40;;;;;;;;;;5015702;28;20033;-61
2021/07/13 08:37:04;;;;;;;45.53;40.95;;;;;;;;;;5015820;28;20052;-57
2021/07/13 08:39:30;;;;;;;42.72;38.33;;;;;;;;;;5033476;28;20029;-61
2021/07/13 08:41:57;;;;;;;44.50;39.72;;;;;;;;;;5034283;28;20450;-59
2021/07/13 08:44:23;;;;;;;45.78;41.00;;;;;;;;;;5015949;28;20092;-60
2021/07/13 08:46:49;;;;;;;42.92;38.55;;;;;;;;;;5033131;28;20056;-59
2021/07/13 08:49:15;;;;;;;44.85;40.25;;;;;;;;;;5015885;28;20025;-59
2021/07/13 08:51:43;;;;;;;47.30;42.28;;;;;;;;;;5023173;28;20400;-61
2021/07/13 08:54:09;;;;;;;43.72;39.33;;;;;;;;;;5035407;28;20047;-61
2021/07/13 08:56:36;;;;;;;46.42;41.45;;;;;;;;;;5035165;28;20043;-60
2021/07/13 08:59:03;;;;;;;45.08;40.40;;;;;;;;;;5053246;28;20035;-61
2021/07/13 09:01:29;;;;;;;47.78;42.55;;;;;;;;;;5034867;28;20040;-59
2021/07/13 09:04:01;;;;;;;46.85;42.05;;;;;;;;;;5053067;28;20025;-59
2021/07/13 09:06:27;;;;;;;48.28;43.17;;;;;;;;;;5052769;28;20088;-61
2021/07/13 09:08:53;;;;;;;50.10;44.83;;;;;;;;;;5052836;28;20029;-61
2021/07/13 09:11:21;;;;;;;49.65;44.60;;;;;;;;;;5052861;28;20168;-61
2021/07/13 09:13:54;;;;;;;51.40;46.13;;;;;;;;;;5053057;28;20063;-62
2021/07/13 09:16:20;;;;;;;49.17;44.15;;;;;;;;;;5052640;28;20017;-58
2021/07/13 09:18:47;;;;;;;47.47;42.58;;;;;;;;;;5052031;28;20032;-60
2021/07/13 09:21:13;;;;;;;47.65;42.83;;;;;;;;;;5052974;28;20445;-58
2021/07/13 09:23:58;;;;;;;47.60;42.72;;;;;;;;;;5052698;28;20092;-61
2021/07/13 09:26:44;;;;;;;48.47;43.65;;;;;;;;;;5052542;28;20123;-58
2021/07/13 09:29:26;;;;;;;48.72;43.83;;;;;;;;;;5052790;28;20435;-58
2021/07/13 09:31:52;;;;;;;45.92;41.28;;;;;;;;;;5052604;28;20535;-61
2021/07/13 09:34:19;;;;;;;47.58;42.55;;;;;;;;;;5052190;28;20052;-59
2021/07/13 09:36:54;;;;;;;45.20;40.60;;;;;;;;;;5034501;28;20473;-62
2021/07/13 09:39:24;;;;;;;44.25;39.58;;;;;;;;;;5052870;28;20025;-62
2021/07/13 09:41:54;;;;;;;45.50;40.78;;;;;;;;;;5052498;28;20017;-61
2021/07/13 09:44:24;;;;;;;44.25;39.67;;;;;;;;;;5034290;28;20029;-61
2021/07/13 09:46:50;;;;;;;44.40;39.70;;;;;;;;;;5052111;28;20082;-63
2021/07/13 09:49:19;;;;;;;42.28;37.75;;;;;;;;;;5052223;28;20557;-62
2021/07/13 09:51:55;;;;;;;43.45;38.95;;;;;;;;;;5052071;28;20032;-61
2021/07/13 09:54:30;;;;;;;45.22;40.45;;;;;;;;;;5052604;28;20025;-61
2021/07/13 09:56:55;;;;;;;42.90;38.50;;;;;;;;;;5051311;28;20105;-60
2021/07/13 09:59:22;;;;;;;43.10;38.35;;;;;;;;;;5052049;28;20129;-63
2021/07/13 10:01:49;;;;;;;44.42;39.88;;;;;;;;;;5051826;28;20044;-61
2021/07/13 10:04:15;;;;;;;40.53;36.22;;;;;;;;;;5033748;28;20040;-61
2021/07/13 10:06:41;;;;;;;40.00;35.75;;;;;;;;;;5050992;28;20108;-61
2021/07/13 10:09:11;;;;;;;43.53;38.92;;;;;;;;;;5034003;28;20033;-61
2021/07/13 10:11:39;;;;;;;42.42;38.20;;;;;;;;;;5051694;28;20135;-61
2021/07/13 10:14:06;;;;;;;39.50;35.40;;;;;;;;;;5051515;28;20059;-61
2021/07/13 10:16:32;;;;;;;42.47;37.73;;;;;;;;;;5051564;28;20025;-61
2021/07/13 10:18:59;;;;;;;42.42;38.00;;;;;;;;;;5034114;28;20544;-62
2021/07/13 10:21:26;;;;;;;42.95;38.60;;;;;;;;;;5051744;28;20467;-56
2021/07/13 10:23:53;;;;;;;40.80;36.60;;;;;;;;;;5034088;28;20044;-61
2021/07/13 10:26:37;;;;;;;38.50;34.40;;;;;;;;;;5051522;28;20053;-62
2021/07/13 10:29:23;;;;;;;38.13;34.08;;;;;;;;;;5033607;28;20029;-62
2021/07/13 10:31:49;;;;;;;35.13;30.65;;;;;;;;;;5033400;28;20025;-61
2021/07/13 10:34:35;;;;;;;35.92;32.13;;;;;;;;;;5033856;28;20051;-61
2021/07/13 10:37:34;;;;;;;34.88;31.20;;;;;;;;;;5033525;28;20443;-61
2021/07/13 10:40:07;;;;;;;37.33;33.33;;;;;;;;;;4997486;28;20489;-62
2021/07/13 10:42:42;;;;;;;35.22;31.50;;;;;;;;;;5051517;28;20108;-61
2021/07/13 10:45:14;;;;;;;36.53;32.70;;;;;;;;;;5033498;28;20021;-61
2021/07/13 10:47:56;;;;;;;35.13;31.40;;;;;;;;;;5033749;28;20029;-63
2021/07/13 10:50:22;;;;;;;34.78;31.17;;;;;;;;;;5051505;28;20025;-61
2021/07/13 10:52:52;;;;;;;35.45;31.70;;;;;;;;;;5051150;28;20076;-61
2021/07/13 10:55:30;;;;;;;37.78;33.88;;;;;;;;;;5033045;28;20037;-60
2021/07/13 10:57:56;;;;;;;;;;;;;;;;;;5033983;28;20496;-60
2021/07/13 11:00:42;;;;;;;37.28;33.42;;;;;;;;;;5051310;28;19904;-61
2021/07/13 11:03:08;;;;;;;38.15;34.25;;;;;;;;;;5033381;28;20032;-61
2021/07/13 11:05:43;;;;;;;37.28;33.45;;;;;;;;;;5032701;28;20086;-60
2021/07/13 11:08:09;;;;;;;37.58;33.78;;;;;;;;;;5051616;28;20056;-62
2021/07/13 11:10:39;;;;;;;35.78;31.98;;;;;;;;;;5033793;28;20083;-62
2021/07/13 11:13:22;;;;;;;35.05;31.25;;;;;;;;;;5033690;28;20529;-61
2021/07/13 11:15:48;;;;;;;36.22;32.42;;;;;;;;;;5033329;28;20025;-61
2021/07/13 11:18:25;;;;;;;33.95;30.48;;;;;;;;;;5033520;28;20407;-61
2021/07/13 11:20:51;;;;;;;34.95;31.35;;;;;;;;;;5033524;28;20029;-61
2021/07/13 11:23:26;;;;;;;34.40;30.70;;;;;;;;;;5051253;28;20048;-62
2021/07/13 11:26:05;;;;;;;30.38;26.77;;;;;;;;;;5050848;28;20108;-60
2021/07/13 11:28:32;;;;;;;28.73;25.67;;;;;;;;;;5051579;28;20067;-62
2021/07/13 11:30:59;;;;;;;27.92;25.02;;;;;;;;;;5050964;28;20063;-61
2021/07/13 11:33:28;;;;;;;24.45;21.58;;;;;;;;;;5050917;28;20029;-60
2021/07/13 11:35:55;;;;;;;24.75;22.05;;;;;;;;;;5032998;28;20053;-61
2021/07/13 11:38:28;;;;;;;24.98;22.35;;;;;;;;;;5051179;28;20460;-61
2021/07/13 11:41:10;;;;;;;26.83;24.00;;;;;;;;;;5033346;28;20063;-62
2021/07/13 11:43:36;;;;;;;29.10;25.73;;;;;;;;;;5054485;28;20028;-61
2021/07/13 11:46:11;;;;;;;29.15;24.08;;;;;;;;;;5054083;28;20043;-61
2021/07/13 11:48:41;;;;;;;29.35;24.42;;;;;;;;;;5037151;28;20047;-65
2021/07/13 11:51:10;;;;;;;26.27;23.48;;;;;;;;;;5036250;28;20025;-59
2021/07/13 11:53:36;;;;;;;28.00;23.10;;;;;;;;;;5053862;28;20430;-61
2021/07/13 11:56:03;;;;;;;26.08;23.27;;;;;;;;;;5035864;28;20029;-59
2021/07/13 11:58:30;;;;;;;25.50;22.17;;;;;;;;;;5054275;28;20362;-63
2021/07/13 12:01:14;;;;;;;24.83;21.35;;;;;;;;;;5036619;28;20068;-61
2021/07/13 12:03:40;;;;;;;25.35;22.65;;;;;;;;;;5054022;28;20366;-61
2021/07/13 12:06:11;;;;;;;26.73;22.88;;;;;;;;;;5055154;28;20033;-65
2021/07/13 12:08:37;;;;;;;27.10;22.45;;;;;;;;;;5054580;28;20433;-60
2021/07/13 12:11:03;;;;;;;25.90;22.75;;;;;;;;;;5036073;28;20036;-60
2021/07/13 12:13:29;;;;;;;25.20;22.00;;;;;;;;;;5054025;28;20477;-62
2021/07/13 12:16:14;;;;;;;25.73;22.17;;;;;;;;;;5036415;28;20025;-60
2021/07/13 12:18:40;;;;;;;28.30;24.15;;;;;;;;;;5053955;28;20017;-60
2021/07/13 12:21:06;;;;;;;31.33;26.45;;;;;;;;;;5053677;28;20025;-60
2021/07/13 12:23:32;;;;;;;32.22;28.83;;;;;;;;;;5036108;28;20027;-60
2021/07/13 12:26:34;;;;;;;32.97;28.65;;;;;;;;;;5035279;28;20051;-60
2021/07/13 12:29:04;;;;;;;32.60;28.83;;;;;;;;;;4937104;29;20023;-60
2021/07/13 12:31:31;;;;;;;38.58;29.77;;;;;;;;;;5036400;28;20041;-59
2021/07/13 12:33:58;;;;;;;35.05;31.23;;;;;;;;;;5053904;28;20481;-61
2021/07/13 12:36:27;;;;;;;35.47;31.77;;;;;;;;;;5052803;28;20063;-61
2021/07/13 12:38:54;;;;;;;36.65;32.85;;;;;;;;;;5053499;28;20100;-60
2021/07/13 12:41:21;;;;;;;37.55;33.60;;;;;;;;;;5035334;28;20449;-59
2021/07/13 12:43:47;;;;;;;36.13;32.33;;;;;;;;;;5053284;28;20025;-59
2021/07/13 12:46:25;;;;;;;37.50;33.40;;;;;;;;;;5052870;28;20071;-62
2021/07/13 12:48:51;;;;;;;36.42;32.50;;;;;;;;;;5052894;28;20056;-61
2021/07/13 12:51:27;;;;;;;35.00;31.25;;;;;;;;;;5052896;28;20072;-58
2021/07/13 12:54:06;;;;;;;36.65;32.65;;;;;;;;;;5034992;28;20111;-59
2021/07/13 12:56:33;;;;;;;35.72;32.00;;;;;;;;;;5052499;28;20444;-60
2021/07/13 12:59:05;;;;;;;37.75;33.75;;;;;;;;;;5052916;28;20029;-60
2021/07/13 13:01:31;;;;;;;38.95;34.92;;;;;;;;;;5034620;28;20048;-61
2021/07/13 13:04:13;;;;;;;36.22;31.88;;;;;;;;;;5052980;28;20473;-61
2021/07/13 13:06:40;;;;;;;35.08;31.30;;;;;;;;;;5052908;28;20017;-62
2021/07/13 13:09:07;;;;;;;35.10;31.33;;;;;;;;;;5052998;28;20104;-62
2021/07/13 13:11:34;;;;;;;36.60;32.78;;;;;;;;;;5035055;28;20431;-62
2021/07/13 13:14:06;;;;;;;36.83;32.83;;;;;;;;;;5053172;28;20503;-62
2021/07/13 13:16:32;;;;;;;37.40;33.53;;;;;;;;;;5052331;28;20029;-62
2021/07/13 13:19:01;;;;;;;42.42;35.25;;;;;;;;;;5052810;28;20025;-62
2021/07/13 13:21:28;;;;;;;39.83;35.53;;;;;;;;;;5052433;28;20528;-60
2021/07/13 13:23:58;;;;;;;37.90;33.95;;;;;;;;;;5052756;28;20036;-60
2021/07/13 13:26:25;;;;;;;38.72;34.63;;;;;;;;;;5034691;28;20652;-61
2021/07/13 13:28:52;;;;;;;39.58;34.25;;;;;;;;;;5052388;28;20025;-59
2021/07/13 13:31:18;;;;;;;39.78;34.85;;;;;;;;;;5051964;28;20025;-59
2021/07/13 13:33:46;;;;;;;38.50;34.35;;;;;;;;;;5033879;28;20029;-60
2021/07/13 13:36:33;;;;;;;41.97;37.63;;;;;;;;;;5052536;28;20013;-60
2021/07/13 13:41:37;;;;;;;41.50;37.05;;;;;;;;;;5052240;28;20025;-61
2021/07/13 13:44:03;;;;;;;38.90;34.88;;;;;;;;;;5052302;28;20060;-62
2021/07/13 13:46:30;;;;;;;43.40;35.70;;;;;;;;;;5052070;28;20078;-60
2021/07/13 13:48:55;;;;;;;40.75;36.38;;;;;;;;;;5034050;28;20036;-61
2021/07/13 13:51:22;;;;;;;40.17;35.85;;;;;;;;;;5034652;28;20029;-61
2021/07/13 13:53:48;;;;;;;40.00;35.85;;;;;;;;;;5034341;28;20059;-61
2021/07/13 13:56:15;;;;;;;40.95;36.55;;;;;;;;;;5074101;22;20572;-65
2021/07/13 13:58:42;;;;;;;39.42;35.03;;;;;;;;;;5050739;28;20029;-64
2021/07/13 14:01:12;;;;;;;40.92;36.65;;;;;;;;;;5050518;28;20029;-64
2021/07/13 14:03:38;;;;;;;39.55;35.35;;;;;;;;;;5050653;28;20068;-63
2021/07/13 14:06:04;;;;;;;39.17;35.13;;;;;;;;;;5058666;28;20048;-64
2021/07/13 14:08:31;;;;;;;40.55;36.22;;;;;;;;;;5070937;28;20099;-65
2021/07/13 14:10:57;;;;;;;38.72;34.83;;;;;;;;;;5070480;28;20104;-64
2021/07/13 14:13:23;;;;;;;39.25;35.08;;;;;;;;;;5070596;28;20091;-64
2021/07/13 14:15:49;;;;;;;40.47;36.28;;;;;;;;;;5051580;28;20025;-63
2021/07/13 14:18:15;;;;;;;39.60;35.42;;;;;;;;;;5070740;28;20056;-64
2021/07/13 14:20:41;;;;;;;38.15;34.08;;;;;;;;;;5070414;28;20039;-62
2021/07/13 14:23:07;;;;;;;39.50;35.42;;;;;;;;;;5070427;28;20051;-64
2021/07/13 14:25:33;;;;;;;39.17;35.17;;;;;;;;;;5070411;28;20096;-64